Pittsburg, California
Current Conditions -  °F | °C
As of 4:53 AM on Wednesday 26 Nov 2014 (Local Time) from KCCR Reporting Station
Haze Haze  
Wind Chill:   Ceiling: Unl
Heat Index:   Visibility: 6mi
Dew Point:   Wind: 0mph
Humidity: 86%   Direction: NA
Pressure: 30.33"   Gusts: NA
Location:  38.02°N, 121.88°W
Report Text: KCCR 261253Z 00000KT 6SM BR CLR 06/04 A3033 RMK AO2 SLP256 T00610039
Loading
Personal Weather Stations






























Interactive Weather Map New forecast layout! Learn more

10-Day Weather Forecast

Advertisements
Track Severe Weather on mobile